Time;durP1;ratioP1;P1;durP2;ratioP2;P2;SDS_P1;SDS_P2;PMS_P1;PMS_P2;Temp;Humidity;BMP_temperature;BMP_pressure;BME280_temperature;BME280_humidity;BME280_pressure;Samples;Min_cycle;Max_cycle;Signal;HPM_P1;HPM_P2
2022/10/16 00:01:21;;;;;;;9.82;1.27;;;9.40;99.90;;;;;;4942819;29;20404;-95
2022/10/16 00:03:47;;;;;;;7.47;0.95;;;9.50;99.90;;;;;;4945418;29;20023;-95
2022/10/16 00:06:14;;;;;;;11.85;1.45;;;9.50;99.90;;;;;;4945052;29;20027;-93
2022/10/16 00:08:41;;;;;;;10.88;1.00;;;9.50;99.90;;;;;;4941789;29;20035;-94
2022/10/16 00:11:22;;;;;;;10.32;1.17;;;9.50;99.90;;;;;;4942097;29;20027;-94
2022/10/16 00:13:50;;;;;;;6.93;1.00;;;9.50;99.90;;;;;;4943533;29;20485;-95
2022/10/16 00:16:16;;;;;;;7.47;1.40;;;9.50;99.90;;;;;;4941620;29;20135;-92
2022/10/16 00:18:42;;;;;;;12.70;1.40;;;9.50;99.90;;;;;;4940155;29;20082;-93
2022/10/16 00:21:17;;;;;;;12.48;1.88;;;9.40;99.90;;;;;;4943522;29;20027;-93
2022/10/16 00:23:42;;;;;;;6.78;1.35;;;9.40;99.90;;;;;;4954756;29;20168;-94
2022/10/16 00:26:12;;;;;;;16.58;1.27;;;9.40;99.90;;;;;;4942347;29;20047;-94
2022/10/16 00:28:38;;;;;;;7.75;1.10;;;9.50;99.90;;;;;;4941561;29;20545;-93
2022/10/16 00:31:09;;;;;;;11.63;1.30;;;9.50;99.90;;;;;;4956505;28;20074;-93
2022/10/16 00:33:36;;;;;;;11.98;1.85;;;9.50;99.90;;;;;;4941100;29;20039;-95
2022/10/16 00:36:04;;;;;;;14.02;1.83;;;9.50;99.90;;;;;;4941405;29;20019;-94
2022/10/16 00:38:31;;;;;;;11.07;1.27;;;9.50;99.90;;;;;;4941101;29;20059;-95
2022/10/16 00:40:56;;;;;;;13.32;1.30;;;9.60;99.90;;;;;;4940535;29;20115;-94
2022/10/16 00:43:51;;;;;;;13.50;1.80;;;9.60;99.90;;;;;;4941179;29;20028;-94
2022/10/16 00:46:22;;;;;;;9.15;1.10;;;9.60;99.90;;;;;;4929210;29;20035;-94
2022/10/16 00:49:03;;;;;;;12.25;1.80;;;9.60;99.90;;;;;;4940250;29;20489;-93
2022/10/16 00:51:33;;;;;;;6.68;1.02;;;9.50;99.90;;;;;;4940781;29;20023;-95
2022/10/16 00:54:00;;;;;;;7.05;1.45;;;9.50;99.90;;;;;;4940995;29;20066;-93
2022/10/16 00:56:26;;;;;;;12.40;1.52;;;9.50;99.90;;;;;;4938544;29;20038;-94
2022/10/16 00:58:52;;;;;;;17.58;2.00;;;9.50;99.90;;;;;;4940625;29;20113;-94
2022/10/16 01:01:18;;;;;;;12.65;2.30;;;9.50;99.90;;;;;;4940578;29;20023;-94
2022/10/16 01:03:44;;;;;;;8.63;1.75;;;9.40;99.90;;;;;;4966058;28;20030;-94
2022/10/16 01:06:18;;;;;;;6.63;1.38;;;9.50;99.90;;;;;;4979327;28;20138;-92
2022/10/16 01:09:05;;;;;;;14.65;1.77;;;9.50;99.90;;;;;;4955803;29;20343;-91
2022/10/16 01:11:44;;;;;;;10.73;1.40;;;9.50;99.90;;;;;;4940241;29;20038;-93
2022/10/16 01:14:37;;;;;;;13.50;1.77;;;9.40;99.90;;;;;;4957301;28;20030;-94
2022/10/16 01:17:15;;;;;;;7.63;1.50;;;9.50;99.90;;;;;;4961144;28;20035;-94
2022/10/16 01:19:55;;;;;;;8.73;1.63;;;9.50;99.90;;;;;;4960277;28;20443;-94
2022/10/16 01:22:25;;;;;;;14.77;1.92;;;9.50;99.90;;;;;;4960810;28;20601;-93
2022/10/16 01:24:55;;;;;;;8.32;1.25;;;9.50;99.90;;;;;;4961174;28;20034;-94
2022/10/16 01:27:25;;;;;;;8.02;1.52;;;9.50;99.90;;;;;;4980436;28;20019;-92
2022/10/16 01:30:01;;;;;;;10.73;1.55;;;9.50;99.90;;;;;;4980704;28;20027;-92
2022/10/16 01:32:39;;;;;;;8.77;1.20;;;9.50;99.90;;;;;;4964867;28;20120;-94
2022/10/16 01:35:23;;;;;;;4.28;1.13;;;9.50;99.90;;;;;;4963881;28;20030;-95
2022/10/16 01:37:51;;;;;;;7.57;1.15;;;9.50;99.90;;;;;;4959618;28;20054;-91
2022/10/16 01:40:21;;;;;;;7.90;1.20;;;9.60;99.90;;;;;;4958937;28;20030;-94
2022/10/16 01:42:57;;;;;;;7.85;1.58;;;9.60;99.90;;;;;;4958612;28;20034;-93
2022/10/16 01:45:28;;;;;;;3.80;0.70;;;9.70;99.90;;;;;;4959010;28;20042;-95
2022/10/16 01:47:54;;;;;;;3.90;0.50;;;9.70;99.90;;;;;;4958629;28;20069;-94
2022/10/16 01:50:21;;;;;;;4.20;0.70;;;9.70;99.90;;;;;;4957930;28;20058;-93
2022/10/16 01:52:51;;;;;;;5.38;0.80;;;9.70;99.90;;;;;;4958046;28;20440;-94
2022/10/16 01:55:29;;;;;;;7.75;1.63;;;9.70;99.90;;;;;;4958410;28;20042;-94
2022/10/16 01:57:56;;;;;;;8.32;0.98;;;9.70;99.90;;;;;;4958382;28;20031;-93
2022/10/16 02:00:23;;;;;;;7.60;1.10;;;9.70;99.90;;;;;;4958063;28;20022;-93
2022/10/16 02:02:52;;;;;;;7.38;1.02;;;9.60;99.90;;;;;;4961921;28;20126;-93
2022/10/16 02:05:26;;;;;;;10.80;1.48;;;9.60;99.90;;;;;;4958817;28;20022;-92
2022/10/16 02:07:52;;;;;;;7.18;1.02;;;9.60;99.90;;;;;;4958085;28;20037;-94
2022/10/16 02:10:18;;;;;;;5.72;1.08;;;9.60;99.90;;;;;;4958170;28;20043;-96
2022/10/16 02:12:54;;;;;;;6.60;0.77;;;9.50;99.90;;;;;;4957941;28;20027;-93
2022/10/16 02:15:20;;;;;;;7.80;1.30;;;9.50;99.90;;;;;;4975810;28;20031;-96
2022/10/16 02:17:45;;;;;;;7.82;1.67;;;9.60;99.90;;;;;;4958578;28;20030;-95
2022/10/16 02:20:11;;;;;;;7.20;0.73;;;9.60;99.90;;;;;;4957653;28;20030;-94
2022/10/16 02:22:46;;;;;;;7.70;2.00;;;9.60;99.90;;;;;;4956949;28;20457;-94
2022/10/16 02:25:22;;;;;;;7.53;0.90;;;9.60;99.90;;;;;;4957184;28;20389;-95
2022/10/16 02:27:59;;;;;;;6.30;1.65;;;9.60;99.90;;;;;;4957435;28;20046;-95
2022/10/16 02:30:29;;;;;;;6.38;0.93;;;9.60;99.90;;;;;;4975714;28;20049;-94
2022/10/16 02:32:58;;;;;;;9.93;0.98;;;9.60;99.90;;;;;;4993193;28;20022;-95
2022/10/16 02:35:24;;;;;;;6.85;1.42;;;9.60;99.90;;;;;;4976508;28;20085;-95
2022/10/16 02:37:51;;;;;;;10.63;1.05;;;9.60;99.90;;;;;;4994337;28;20036;-93
2022/10/16 02:40:18;;;;;;;6.60;0.80;;;9.60;99.90;;;;;;4980847;28;20027;-92
2022/10/16 02:42:44;;;;;;;6.40;0.88;;;9.60;99.90;;;;;;4990417;28;20034;-93
2022/10/16 02:45:12;;;;;;;11.05;0.93;;;9.60;99.90;;;;;;4976184;28;20488;-94
2022/10/16 02:47:38;;;;;;;7.22;0.82;;;9.50;99.90;;;;;;4976419;28;20030;-94
2022/10/16 02:50:04;;;;;;;6.95;0.98;;;9.60;99.90;;;;;;4976616;28;20038;-95
2022/10/16 02:52:30;;;;;;;3.42;0.70;;;9.60;99.90;;;;;;4976454;28;20496;-95
2022/10/16 02:54:56;;;;;;;7.10;1.30;;;9.60;99.90;;;;;;4976505;28;20053;-95
2022/10/16 02:57:21;;;;;;;6.30;1.02;;;9.60;99.90;;;;;;4976670;28;20094;-94
2022/10/16 02:59:47;;;;;;;8.18;0.98;;;9.70;99.90;;;;;;4976659;28;20080;-94
2022/10/16 03:02:13;;;;;;;6.03;0.70;;;9.70;99.90;;;;;;4976977;28;20018;-94
2022/10/16 03:04:38;;;;;;;4.28;1.35;;;9.70;99.90;;;;;;4971339;28;20113;-95
2022/10/16 03:07:04;;;;;;;5.82;1.08;;;9.60;99.90;;;;;;4977334;28;20046;-95
2022/10/16 03:09:30;;;;;;;6.03;1.33;;;9.60;99.90;;;;;;4977073;28;20097;-94
2022/10/16 03:11:56;;;;;;;6.15;1.05;;;9.60;99.90;;;;;;4977676;28;20117;-94
2022/10/16 03:14:21;;;;;;;5.32;0.95;;;9.60;99.90;;;;;;4980013;28;20125;-94
2022/10/16 03:16:47;;;;;;;6.35;1.20;;;9.60;99.90;;;;;;4996054;28;20037;-94
2022/10/16 03:19:13;;;;;;;5.95;0.95;;;9.60;99.90;;;;;;4984397;28;20059;-94
2022/10/16 03:21:38;;;;;;;8.10;1.02;;;9.60;99.90;;;;;;4982316;28;20052;-95
2022/10/16 03:24:04;;;;;;;4.57;0.73;;;9.60;99.90;;;;;;4998440;28;20077;-94
2022/10/16 03:26:33;;;;;;;8.15;1.20;;;9.60;99.90;;;;;;4981673;28;20045;-93
2022/10/16 03:28:59;;;;;;;6.03;0.90;;;9.70;99.90;;;;;;4982858;28;20105;-95
2022/10/16 03:31:24;;;;;;;3.88;0.80;;;9.60;99.90;;;;;;4982952;28;20027;-94
2022/10/16 03:33:53;;;;;;;5.78;0.90;;;9.60;99.90;;;;;;4985481;28;20500;-94
2022/10/16 03:36:18;;;;;;;8.40;1.10;;;9.60;99.90;;;;;;4981234;28;20022;-95
2022/10/16 03:38:44;;;;;;;4.97;0.88;;;9.60;99.90;;;;;;4981111;28;20519;-94
2022/10/16 03:41:09;;;;;;;5.63;1.13;;;9.50;99.90;;;;;;4979611;28;20506;-94
2022/10/16 03:43:35;;;;;;;7.00;0.82;;;9.50;99.90;;;;;;4980469;28;20491;-94
2022/10/16 03:46:03;;;;;;;5.80;1.65;;;9.50;99.90;;;;;;4979955;28;20042;-94
2022/10/16 03:48:30;;;;;;;5.60;0.80;;;9.50;99.90;;;;;;4979947;28;20476;-93
2022/10/16 03:50:55;;;;;;;6.25;1.05;;;9.50;99.90;;;;;;4979944;28;20038;-93
2022/10/16 03:53:21;;;;;;;1.90;0.65;;;9.40;99.90;;;;;;4979428;28;20030;-95
2022/10/16 03:55:47;;;;;;;10.32;1.17;;;9.40;99.90;;;;;;4980100;28;20026;-93
2022/10/16 03:58:12;;;;;;;7.20;0.88;;;9.40;99.90;;;;;;4979878;28;20169;-92
2022/10/16 04:00:46;;;;;;;8.65;0.75;;;9.40;99.90;;;;;;4979205;28;20030;-95
2022/10/16 04:03:12;;;;;;;7.75;1.20;;;9.40;99.90;;;;;;4983350;28;20031;-94
2022/10/16 04:05:38;;;;;;;8.15;1.00;;;9.40;99.90;;;;;;4968884;28;20043;-94
2022/10/16 04:08:03;;;;;;;7.70;1.45;;;9.40;99.90;;;;;;4970776;28;20038;-94
2022/10/16 04:10:29;;;;;;;3.97;1.30;;;9.40;99.90;;;;;;4956807;28;20023;-92
2022/10/16 04:12:55;;;;;;;3.80;0.85;;;9.30;99.90;;;;;;4942208;29;20034;-93
2022/10/16 04:15:22;;;;;;;8.07;1.15;;;9.30;99.90;;;;;;4942196;28;20032;-93
2022/10/16 04:17:48;;;;;;;7.15;0.93;;;9.30;99.90;;;;;;4940594;29;20126;-94
2022/10/16 04:20:14;;;;;;;3.92;1.08;;;9.20;99.90;;;;;;4940002;29;20058;-94
2022/10/16 04:22:39;;;;;;;7.72;0.95;;;9.20;99.90;;;;;;4940559;29;20027;-94
2022/10/16 04:25:05;;;;;;;5.53;0.77;;;9.10;99.90;;;;;;4940774;29;20499;-94
2022/10/16 04:27:31;;;;;;;4.55;1.35;;;9.20;99.90;;;;;;4940723;29;20086;-95
2022/10/16 04:30:00;;;;;;;9.38;1.15;;;9.10;99.90;;;;;;4940302;29;20090;-94
2022/10/16 04:32:26;;;;;;;5.25;2.22;;;9.10;99.90;;;;;;4940503;29;20046;-94
2022/10/16 04:34:52;;;;;;;5.00;0.77;;;9.00;99.90;;;;;;4940403;29;20023;-93
2022/10/16 04:37:18;;;;;;;6.22;1.00;;;9.00;99.90;;;;;;4940636;29;20034;-93
2022/10/16 04:39:44;;;;;;;5.53;0.73;;;8.90;99.90;;;;;;4940005;29;20112;-94
2022/10/16 04:42:11;;;;;;;3.17;0.80;;;8.90;99.90;;;;;;4940555;29;20156;-94
2022/10/16 04:44:36;;;;;;;3.10;0.75;;;8.80;99.90;;;;;;4940017;29;20054;-93
2022/10/16 04:47:02;;;;;;;7.80;1.73;;;8.80;99.90;;;;;;4940177;29;20496;-94
2022/10/16 04:49:28;;;;;;;6.13;0.80;;;8.80;99.90;;;;;;4939331;29;20043;-93
2022/10/16 04:51:53;;;;;;;7.93;0.93;;;8.80;99.90;;;;;;4939870;29;20064;-93
2022/10/16 04:54:19;;;;;;;7.07;0.88;;;8.80;99.90;;;;;;4940494;29;20043;-93
2022/10/16 04:56:50;;;;;;;2.83;0.52;;;8.70;99.90;;;;;;4956671;28;20604;-94
2022/10/16 04:59:16;;;;;;;8.20;1.50;;;8.70;99.90;;;;;;4943661;29;20121;-95
2022/10/16 05:01:43;;;;;;;5.88;1.85;;;8.70;99.90;;;;;;4956470;28;20035;-94
2022/10/16 05:04:08;;;;;;;9.77;1.33;;;8.70;99.90;;;;;;4959644;28;20039;-94
2022/10/16 05:06:34;;;;;;;2.55;0.90;;;8.70;99.90;;;;;;4966169;28;20031;-94
2022/10/16 05:09:00;;;;;;;8.63;0.90;;;8.60;99.90;;;;;;4959233;28;20113;-95
2022/10/16 05:11:25;;;;;;;3.88;0.82;;;8.60;99.90;;;;;;4959714;28;20480;-94
2022/10/16 05:13:51;;;;;;;5.50;0.68;;;8.60;99.90;;;;;;4958581;28;20217;-94
2022/10/16 05:16:17;;;;;;;3.38;0.80;;;8.50;99.90;;;;;;4959072;28;20131;-93
2022/10/16 05:18:45;;;;;;;3.38;0.88;;;8.50;99.90;;;;;;4959187;28;20027;-93
2022/10/16 05:21:12;;;;;;;8.88;0.73;;;8.40;99.90;;;;;;4958987;28;20031;-94
2022/10/16 05:23:38;;;;;;;5.03;0.93;;;8.40;99.90;;;;;;4958443;28;20034;-91
2022/10/16 05:26:04;;;;;;;3.47;0.80;;;8.40;99.90;;;;;;4958281;28;20034;-92
2022/10/16 05:28:31;;;;;;;5.80;0.75;;;8.30;99.90;;;;;;4958718;28;20057;-92
2022/10/16 05:30:57;;;;;;;3.92;0.60;;;8.30;99.90;;;;;;4958605;28;20066;-95
2022/10/16 05:33:25;;;;;;;5.65;1.00;;;8.30;99.90;;;;;;4958848;28;20019;-93
2022/10/16 05:35:51;;;;;;;5.75;0.82;;;8.30;99.90;;;;;;4958768;28;20031;-94
2022/10/16 05:38:18;;;;;;;4.43;0.77;;;8.30;99.90;;;;;;4958776;28;20029;-93
2022/10/16 05:40:50;;;;;;;4.32;0.95;;;8.20;99.90;;;;;;4958993;28;20481;-94
2022/10/16 05:43:15;;;;;;;3.33;0.63;;;8.20;99.90;;;;;;4957915;28;20030;-95
2022/10/16 05:45:41;;;;;;;3.55;0.63;;;8.20;99.90;;;;;;4958972;28;20038;-93
2022/10/16 05:48:07;;;;;;;3.10;0.73;;;8.20;99.90;;;;;;4958155;28;20034;-94
2022/10/16 05:50:35;;;;;;;5.43;0.77;;;8.10;99.90;;;;;;4975579;28;20080;-95
2022/10/16 05:53:01;;;;;;;5.03;0.77;;;8.10;99.90;;;;;;4958578;28;20343;-94
2022/10/16 05:55:26;;;;;;;7.18;2.15;;;8.10;99.90;;;;;;4958121;28;20080;-94
2022/10/16 05:57:54;;;;;;;9.45;0.80;;;8.00;99.90;;;;;;4958323;28;20023;-94
2022/10/16 06:00:20;;;;;;;2.45;0.50;;;8.00;99.90;;;;;;4958206;28;20023;-94
2022/10/16 06:02:46;;;;;;;4.25;0.50;;;8.00;99.90;;;;;;4959539;28;20476;-94
2022/10/16 06:05:11;;;;;;;2.15;0.50;;;7.90;99.90;;;;;;4961540;28;20027;-94
2022/10/16 06:07:37;;;;;;;2.78;0.77;;;7.90;99.90;;;;;;4967360;28;20023;-94
2022/10/16 06:10:04;;;;;;;4.97;0.82;;;7.90;99.90;;;;;;4958691;28;20050;-94
2022/10/16 06:12:30;;;;;;;1.85;0.52;;;7.90;99.90;;;;;;4958147;28;20027;-94
2022/10/16 06:14:55;;;;;;;4.13;0.60;;;7.90;99.90;;;;;;4958834;28;20049;-95
2022/10/16 06:17:21;;;;;;;6.65;0.85;;;7.90;99.90;;;;;;4957508;28;20035;-94
2022/10/16 06:19:46;;;;;;;1.17;0.60;;;7.80;99.90;;;;;;4957502;28;20112;-95
2022/10/16 06:22:12;;;;;;;2.35;0.50;;;7.80;99.90;;;;;;4957591;28;20513;-93
2022/10/16 06:24:38;;;;;;;3.38;0.60;;;7.80;99.90;;;;;;4951436;28;20404;-94
2022/10/16 06:27:04;;;;;;;1.27;0.50;;;7.80;99.90;;;;;;4957128;28;20051;-93
2022/10/16 06:29:31;;;;;;;2.67;0.90;;;7.70;99.90;;;;;;4947147;28;20061;-94
2022/10/16 06:31:57;;;;;;;6.35;0.90;;;7.70;99.90;;;;;;4956542;28;20047;-94
2022/10/16 06:34:23;;;;;;;3.85;0.50;;;7.70;99.90;;;;;;4951846;28;20340;-94
2022/10/16 06:36:48;;;;;;;4.70;0.70;;;7.70;99.90;;;;;;4951897;28;20550;-93
2022/10/16 06:39:14;;;;;;;4.53;0.60;;;7.70;99.90;;;;;;4956796;28;20576;-96
2022/10/16 06:41:40;;;;;;;3.13;1.00;;;7.70;99.90;;;;;;4957136;28;20023;-94
2022/10/16 06:44:07;;;;;;;5.97;0.70;;;7.60;99.90;;;;;;4949034;28;20078;-94
2022/10/16 06:46:33;;;;;;;3.33;0.80;;;7.60;99.90;;;;;;4955412;29;20070;-95
2022/10/16 06:48:59;;;;;;;9.02;1.10;;;7.60;99.90;;;;;;4956673;28;20492;-96
2022/10/16 06:51:25;;;;;;;4.78;0.80;;;7.60;99.90;;;;;;4970735;28;20046;-93
2022/10/16 06:53:53;;;;;;;7.68;1.40;;;7.60;99.90;;;;;;4959364;28;20031;-95
2022/10/16 06:56:29;;;;;;;5.13;1.45;;;7.60;99.90;;;;;;4942917;29;20031;-95
2022/10/16 06:58:58;;;;;;;3.72;0.88;;;7.60;99.90;;;;;;4943517;29;20074;-94
2022/10/16 07:01:27;;;;;;;2.17;0.68;;;7.60;99.90;;;;;;4959621;28;20031;-94
2022/10/16 07:03:53;;;;;;;5.38;1.45;;;7.50;99.90;;;;;;4957910;28;20032;-96
2022/10/16 07:06:21;;;;;;;5.82;1.05;;;7.50;99.90;;;;;;4954662;28;20035;-93
2022/10/16 07:08:51;;;;;;;5.18;1.83;;;7.50;99.90;;;;;;4939859;29;20492;-94
2022/10/16 07:13:49;;;;;;;5.22;0.93;;;7.50;99.90;;;;;;5018250;23;20060;-94
2022/10/16 07:16:18;;;;;;;4.88;1.15;;;7.40;99.90;;;;;;4993713;28;20022;-92
2022/10/16 07:18:45;;;;;;;5.38;1.40;;;7.40;99.90;;;;;;4994735;28;20451;-92
2022/10/16 07:21:14;;;;;;;4.78;0.70;;;7.50;99.90;;;;;;4997363;28;20041;-96
2022/10/16 07:23:41;;;;;;;6.30;0.70;;;7.40;99.90;;;;;;4991028;28;20026;-96
2022/10/16 07:26:08;;;;;;;7.07;0.77;;;7.50;99.90;;;;;;5007426;28;20033;-94
2022/10/16 07:28:34;;;;;;;3.03;0.60;;;7.50;99.90;;;;;;4990371;28;20033;-92
2022/10/16 07:31:05;;;;;;;5.45;0.65;;;7.50;99.90;;;;;;4989288;28;20036;-93
2022/10/16 07:33:32;;;;;;;8.48;0.90;;;7.50;99.90;;;;;;4989062;28;20060;-95
2022/10/16 07:35:57;;;;;;;4.40;0.80;;;7.50;99.90;;;;;;4991744;28;20521;-95
2022/10/16 07:38:23;;;;;;;4.82;0.70;;;7.50;99.90;;;;;;4990938;28;20026;-96
2022/10/16 07:40:56;;;;;;;5.22;1.27;;;7.50;99.90;;;;;;5011653;28;20030;-93
2022/10/16 07:43:22;;;;;;;5.15;1.48;;;7.50;99.90;;;;;;4989728;28;20022;-93
2022/10/16 07:45:49;;;;;;;5.05;0.60;;;7.50;99.90;;;;;;4987971;28;20029;-94
2022/10/16 07:48:16;;;;;;;9.10;1.20;;;7.50;99.90;;;;;;4985668;28;20030;-92
2022/10/16 07:50:42;;;;;;;6.53;0.70;;;7.50;99.90;;;;;;4989667;28;20044;-95
2022/10/16 07:53:08;;;;;;;5.72;0.77;;;7.50;99.90;;;;;;4986958;28;20109;-94
2022/10/16 07:55:33;;;;;;;3.70;0.90;;;7.50;99.90;;;;;;4988632;28;20037;-92
2022/10/16 07:57:59;;;;;;;3.17;0.68;;;7.60;99.90;;;;;;4989841;28;20030;-93
2022/10/16 08:00:27;;;;;;;6.20;0.90;;;7.60;99.90;;;;;;4992420;28;20022;-94
2022/10/16 08:02:53;;;;;;;4.13;1.00;;;7.60;99.90;;;;;;4989300;28;20040;-94
2022/10/16 08:05:19;;;;;;;8.02;1.27;;;7.60;99.90;;;;;;5008737;28;20113;-93
2022/10/16 08:07:49;;;;;;;4.72;0.88;;;7.60;99.90;;;;;;4990764;28;20022;-93
2022/10/16 08:10:21;;;;;;;8.93;1.25;;;7.70;99.90;;;;;;4980502;28;20034;-95
2022/10/16 08:12:47;;;;;;;5.55;0.90;;;7.70;99.90;;;;;;4978807;28;20045;-94
2022/10/16 08:15:12;;;;;;;4.72;0.93;;;7.80;99.90;;;;;;4979048;28;20090;-93
2022/10/16 08:17:44;;;;;;;5.50;1.00;;;7.90;99.90;;;;;;4976993;28;20025;-93
2022/10/16 08:20:11;;;;;;;4.88;1.00;;;7.90;99.90;;;;;;4974547;28;20049;-94
2022/10/16 08:22:36;;;;;;;9.05;1.17;;;8.00;99.90;;;;;;4973881;28;20030;-92
2022/10/16 08:25:05;;;;;;;8.55;1.30;;;8.00;99.90;;;;;;4992045;28;20023;-92
2022/10/16 08:27:34;;;;;;;4.00;0.77;;;8.10;99.90;;;;;;4984597;28;20121;-94
2022/10/16 08:30:00;;;;;;;4.50;0.95;;;8.20;99.90;;;;;;4976618;28;20403;-93
2022/10/16 08:32:26;;;;;;;6.38;0.70;;;8.30;99.90;;;;;;4973924;28;20030;-92
2022/10/16 08:34:51;;;;;;;6.75;1.92;;;8.40;99.90;;;;;;4977391;28;20053;-92
2022/10/16 08:37:17;;;;;;;3.92;0.70;;;8.40;99.90;;;;;;4980691;28;20028;-94
2022/10/16 08:39:43;;;;;;;6.57;0.80;;;8.50;99.90;;;;;;4996288;28;20030;-93
2022/10/16 08:42:20;;;;;;;2.55;0.80;;;8.60;99.90;;;;;;4995215;28;20023;-91
2022/10/16 08:45:14;;;;;;;7.15;0.80;;;8.70;99.90;;;;;;4988717;28;20096;-95
2022/10/16 08:47:50;;;;;;;6.68;1.20;;;8.70;99.90;;;;;;4975518;28;20026;-94
2022/10/16 08:50:24;;;;;;;4.63;0.85;;;8.80;99.90;;;;;;4983536;28;20093;-94
2022/10/16 08:52:50;;;;;;;5.55;1.58;;;8.90;99.90;;;;;;4971728;28;20126;-95
2022/10/16 08:55:42;;;;;;;7.15;0.98;;;9.00;99.90;;;;;;4979704;28;20047;-94
2022/10/16 08:58:26;;;;;;;11.93;1.10;;;9.10;99.90;;;;;;4970997;28;20023;-95
2022/10/16 09:00:58;;;;;;;6.65;1.40;;;9.20;99.90;;;;;;4993465;28;20022;-95
2022/10/16 09:04:01;;;;;;;5.32;1.17;;;9.20;99.90;;;;;;4976140;28;20030;-95
2022/10/16 09:06:39;;;;;;;4.47;1.00;;;9.30;99.90;;;;;;4970139;28;20034;-96
2022/10/16 09:12:27;;;;;;;5.28;0.98;;;9.50;99.90;;;;;;5006386;28;20049;-95
2022/10/16 09:15:36;;;;;;;6.80;0.80;;;9.60;99.90;;;;;;5001419;28;20074;-95
2022/10/16 09:18:32;;;;;;;2.28;0.65;;;9.70;99.90;;;;;;4985820;28;20495;-95
2022/10/16 09:21:39;;;;;;;2.47;0.60;;;9.80;99.90;;;;;;4999412;28;20007;-95
2022/10/16 09:24:34;;;;;;;5.88;0.82;;;10.00;99.90;;;;;;4998015;28;20025;-95
2022/10/16 09:27:16;;;;;;;7.05;0.75;;;10.20;99.90;;;;;;4977406;28;20022;-96
2022/10/16 09:29:42;;;;;;;5.22;0.93;;;10.40;99.90;;;;;;4976996;28;20047;-94
2022/10/16 09:32:23;;;;;;;3.65;0.57;;;10.60;99.90;;;;;;5007334;28;20030;-95
2022/10/16 09:35:14;;;;;;;8.27;0.70;;;10.80;99.90;;;;;;4984352;28;20018;-93
2022/10/16 09:37:48;;;;;;;3.65;0.70;;;11.00;99.90;;;;;;4997369;28;20030;-95
2022/10/16 09:40:51;;;;;;;7.13;1.25;;;11.30;99.90;;;;;;5019406;28;20023;-95
2022/10/16 09:43:34;;;;;;;4.82;0.90;;;11.60;99.90;;;;;;4983290;28;20034;-96
2022/10/16 09:46:05;;;;;;;5.97;1.02;;;11.90;99.90;;;;;;4992614;28;20030;-96
2022/10/16 09:48:53;;;;;;;8.00;1.15;;;12.10;99.90;;;;;;5006916;28;20037;-95
2022/10/16 09:51:35;;;;;;;2.35;0.60;;;12.30;99.90;;;;;;4979378;28;20042;-96
2022/10/16 09:54:31;;;;;;;3.38;0.70;;;12.70;99.90;;;;;;4964603;28;20037;-96
2022/10/16 09:57:16;;;;;;;8.07;0.90;;;13.00;99.90;;;;;;4988606;28;20130;-95
2022/10/16 09:59:55;;;;;;;2.88;0.70;;;13.30;99.90;;;;;;5007205;28;20035;-96
2022/10/16 10:02:34;;;;;;;2.33;0.70;;;13.50;99.90;;;;;;4989599;28;20022;-95
2022/10/16 10:05:00;;;;;;;4.45;0.82;;;13.60;99.90;;;;;;4986681;28;20023;-96
2022/10/16 10:07:33;;;;;;;4.07;0.90;;;13.80;99.90;;;;;;4978614;28;20042;-95
2022/10/16 10:09:59;;;;;;;5.43;1.00;;;14.00;99.40;;;;;;4980059;28;20039;-96
2022/10/16 10:12:34;;;;;;;2.47;0.65;;;14.10;97.10;;;;;;4971650;28;20113;-95
2022/10/16 10:15:22;;;;;;;5.72;0.68;;;14.20;96.00;;;;;;4973511;28;20031;-96
2022/10/16 10:17:51;;;;;;;3.10;0.95;;;14.40;95.40;;;;;;4971365;28;20493;-95
2022/10/16 10:20:35;;;;;;;5.88;0.60;;;14.50;94.00;;;;;;4971345;28;20025;-96
2022/10/16 10:23:22;;;;;;;3.95;0.85;;;14.50;93.40;;;;;;4968382;28;20031;-96
2022/10/16 10:25:59;;;;;;;2.40;0.70;;;14.60;93.00;;;;;;4988195;28;20042;-96
2022/10/16 10:28:52;;;;;;;6.10;0.63;;;14.90;92.50;;;;;;4970010;28;20031;-95
2022/10/16 10:32:00;;;;;;;4.07;0.70;;;15.00;91.80;;;;;;4977471;28;20023;-96
2022/10/16 10:34:40;;;;;;;2.92;0.60;;;15.20;90.30;;;;;;4978492;28;20027;-93
2022/10/16 10:37:22;;;;;;;3.35;1.45;;;15.20;88.60;;;;;;4959845;28;20070;-96
2022/10/16 10:40:19;;;;;;;3.38;0.68;;;15.30;88.20;;;;;;4988512;28;20061;-96
2022/10/16 10:42:59;;;;;;;3.45;0.60;;;15.50;87.50;;;;;;4953570;28;20035;-95
2022/10/16 10:45:55;;;;;;;3.10;0.60;;;15.70;85.60;;;;;;4976440;28;20062;-96
2022/10/16 10:48:34;;;;;;;3.63;0.60;;;15.80;82.70;;;;;;4965880;28;20015;-96
2022/10/16 10:51:28;;;;;;;6.30;0.93;;;15.90;81.90;;;;;;4981943;28;20098;-95
2022/10/16 10:54:19;;;;;;;5.35;0.60;;;15.90;80.70;;;;;;4959254;28;20785;-96
2022/10/16 10:57:10;;;;;;;2.63;0.50;;;16.00;80.20;;;;;;4980032;28;20098;-95
2022/10/16 10:59:46;;;;;;;1.83;0.50;;;16.10;78.10;;;;;;4979306;28;20049;-95
2022/10/16 11:02:31;;;;;;;1.02;0.50;;;16.10;77.70;;;;;;4960246;28;20030;-95
2022/10/16 11:05:30;;;;;;;3.35;0.70;;;16.20;77.10;;;;;;4970330;28;20027;-96
2022/10/16 11:08:10;;;;;;;1.95;0.82;;;16.50;76.20;;;;;;4973747;28;20027;-93
2022/10/16 11:10:57;;;;;;;1.75;0.40;;;16.70;75.70;;;;;;4989454;28;20043;-94
2022/10/16 11:14:11;;;;;;;1.23;0.50;;;17.00;74.40;;;;;;4982945;28;20042;-95
2022/10/16 11:16:48;;;;;;;5.75;1.00;;;17.20;73.20;;;;;;4923865;29;20052;-96
2022/10/16 11:19:29;;;;;;;2.55;0.57;;;17.20;72.00;;;;;;4924938;29;20045;-96
2022/10/16 11:22:20;;;;;;;3.17;0.63;;;17.30;71.70;;;;;;4926997;29;20032;-96
2022/10/16 11:25:02;;;;;;;3.20;0.60;;;17.30;71.40;;;;;;4919606;29;20028;-95
2022/10/16 11:27:51;;;;;;;5.25;0.60;;;17.50;71.10;;;;;;4905759;29;20056;-96
2022/10/16 11:30:27;;;;;;;7.53;0.80;;;17.50;69.50;;;;;;4934359;29;20036;-96
2022/10/16 11:33:08;;;;;;;2.65;0.82;;;17.50;69.40;;;;;;4922508;29;20019;-96
2022/10/16 11:35:52;;;;;;;2.55;0.45;;;17.50;68.80;;;;;;4937094;29;20028;-95
2022/10/16 11:38:42;;;;;;;4.05;0.55;;;17.60;68.40;;;;;;4920649;29;20039;-96
2022/10/16 11:41:19;;;;;;;2.00;0.30;;;17.70;68.10;;;;;;4925759;29;20039;-96
2022/10/16 11:44:16;;;;;;;6.65;0.90;;;17.70;67.30;;;;;;4932608;29;20272;-94
2022/10/16 11:47:29;;;;;;;3.75;0.40;;;17.90;66.80;;;;;;4938525;29;20096;-95
2022/10/16 11:50:16;;;;;;;4.13;0.60;;;18.20;66.20;;;;;;4955301;28;20027;-96
2022/10/16 11:52:53;;;;;;;2.55;0.80;;;18.30;65.00;;;;;;4980546;28;20023;-96
2022/10/16 11:55:31;;;;;;;4.68;0.60;;;18.60;65.10;;;;;;4994496;28;20015;-95
2022/10/16 11:58:34;;;;;;;2.30;0.32;;;18.70;64.10;;;;;;4984902;28;20019;-92
2022/10/16 12:01:09;;;;;;;1.35;0.28;;;18.80;64.30;;;;;;4979925;28;20113;-94
2022/10/16 12:04:14;;;;;;;2.10;1.13;;;19.00;63.50;;;;;;4976458;28;20053;-94
2022/10/16 12:06:45;;;;;;;5.35;1.88;;;19.10;63.10;;;;;;4963154;28;20061;-92
2022/10/16 12:09:34;;;;;;;2.08;0.60;;;19.40;62.90;;;;;;4976311;28;20030;-95
2022/10/16 12:12:00;;;;;;;1.75;0.40;;;19.60;61.90;;;;;;4979200;28;20044;-95
2022/10/16 12:14:40;;;;;;;3.75;0.40;;;19.80;61.70;;;;;;4976141;28;20031;-93
2022/10/16 12:17:21;;;;;;;3.40;0.80;;;19.90;61.30;;;;;;4998075;28;20027;-94
2022/10/16 12:20:13;;;;;;;1.35;0.40;;;20.10;60.80;;;;;;4988645;28;20282;-93
2022/10/16 12:23:00;;;;;;;2.45;0.52;;;20.00;60.00;;;;;;4974186;28;20106;-94
2022/10/16 12:25:55;;;;;;;1.98;0.52;;;20.00;60.80;;;;;;4977475;28;20031;-94
2022/10/16 12:28:28;;;;;;;2.75;0.60;;;20.00;60.90;;;;;;4972898;28;20027;-96
2022/10/16 12:31:00;;;;;;;3.38;0.70;;;19.80;60.60;;;;;;4976956;28;20027;-94
2022/10/16 12:33:32;;;;;;;4.47;0.75;;;19.40;60.60;;;;;;4979380;28;20049;-94
2022/10/16 12:36:01;;;;;;;4.15;0.50;;;19.00;60.50;;;;;;4983117;28;20022;-95
2022/10/16 12:38:59;;;;;;;3.58;0.55;;;18.70;61.00;;;;;;4977575;28;20034;-95
2022/10/16 12:41:39;;;;;;;3.22;0.95;;;18.30;61.50;;;;;;4959171;28;20042;-95
2022/10/16 12:44:05;;;;;;;2.08;0.60;;;18.10;62.20;;;;;;4965857;28;20039;-96
2022/10/16 12:46:36;;;;;;;4.45;0.52;;;17.90;62.80;;;;;;4971242;28;20115;-94
2022/10/16 12:49:35;;;;;;;2.17;0.50;;;17.70;63.40;;;;;;4972366;28;20098;-94
2022/10/16 12:52:03;;;;;;;5.70;0.75;;;17.60;64.10;;;;;;4969055;28;20039;-95
2022/10/16 12:54:34;;;;;;;6.20;0.60;;;17.50;64.30;;;;;;4989668;28;20109;-94
2022/10/16 12:57:19;;;;;;;1.65;0.40;;;17.40;64.90;;;;;;4979095;28;20117;-94
2022/10/16 13:00:10;;;;;;;4.03;0.63;;;17.30;65.40;;;;;;4985892;28;20022;-94
2022/10/16 13:02:47;;;;;;;;;;;17.30;65.30;;;;;;4973485;28;20030;-95
2022/10/16 13:05:44;;;;;;;1.27;0.40;;;17.10;64.90;;;;;;4972387;28;19925;-94
2022/10/16 13:08:29;;;;;;;2.58;0.60;;;17.10;65.10;;;;;;4975607;28;20023;-95
2022/10/16 13:11:19;;;;;;;4.00;0.80;;;17.10;65.10;;;;;;4973598;28;20366;-94
2022/10/16 13:14:10;;;;;;;4.82;0.63;;;17.20;65.10;;;;;;4974922;28;20118;-96
2022/10/16 13:17:00;;;;;;;1.90;0.68;;;17.20;63.80;;;;;;4973528;28;20081;-95
2022/10/16 13:20:02;;;;;;;3.55;0.73;;;17.10;64.00;;;;;;4974388;28;20033;-93
2022/10/16 13:22:35;;;;;;;4.47;0.73;;;17.00;63.80;;;;;;4976061;28;20058;-94
2022/10/16 13:25:23;;;;;;;4.55;0.70;;;17.00;64.20;;;;;;4991305;28;20473;-96
2022/10/16 13:28:02;;;;;;;1.60;0.43;;;17.20;64.70;;;;;;4977744;28;20034;-94
2022/10/16 13:30:41;;;;;;;2.13;0.90;;;17.50;64.90;;;;;;4963982;28;20485;-95